Port Allen, Hawaii
Current Conditions -  °F | °C
As of 4:21 PM on Wednesday 22 Oct 2014 (Local Time) from PHBK Reporting Station
Light Rain Light Rain  
Wind Chill: 77°   Ceiling: 4700
Heat Index: 78°   Visibility: 4mi
Dew Point: 75°   Wind: 8mph
Humidity: 94%   Direction: 70°ENE
Pressure: 29.96"   Gusts: NA
Location:  21.9°N, 159.6°W
Report Text: PHBK 230221Z AUTO 07007KT 4SM -RA BR FEW019 SCT028 OVC047 25/24 A2996 RMK AO2 P0001 T02500239
Loading
Personal Weather Stations






























Interactive Weather Map
Tropical Storm Tracking
New forecast layout! Learn more

10-Day Weather Forecast

Advertisements
Track Severe Weather on mobile